createdAt,value
2018-07-25T00:01:43.631Z,100117.08
2018-07-25T00:04:14.300Z,100113.39
2018-07-25T00:06:44.946Z,100108.67
2018-07-25T00:09:15.647Z,100108.50
2018-07-25T00:11:46.330Z,100116.23
2018-07-25T00:14:16.991Z,100109.49
2018-07-25T00:16:47.723Z,100110.34
2018-07-25T00:19:18.427Z,100104.42
2018-07-25T00:21:49.134Z,100109.14
2018-07-25T00:24:19.852Z,100108.81
2018-07-25T00:26:50.623Z,100104.06
2018-07-25T00:29:21.694Z,100106.44
2018-07-25T00:31:52.411Z,100106.94
2018-07-25T00:34:23.042Z,100111.80
2018-07-25T00:36:53.709Z,100106.75
2018-07-25T00:39:24.390Z,100098.48
2018-07-25T00:41:55.185Z,100095.93
2018-07-25T00:44:25.937Z,100100.32
2018-07-25T00:46:56.682Z,100100.25
2018-07-25T00:49:27.382Z,100102.27
2018-07-25T00:51:58.039Z,100104.95
2018-07-25T00:54:28.818Z,100103.25
2018-07-25T00:56:59.522Z,100105.94
2018-07-25T00:59:30.255Z,100105.92
2018-07-25T01:02:00.916Z,100103.22
2018-07-25T01:04:31.738Z,100103.89
2018-07-25T01:07:02.476Z,100106.39
2018-07-25T01:09:33.151Z,100099.48
2018-07-25T01:12:03.977Z,100103.51
2018-07-25T01:14:34.700Z,100098.11
2018-07-25T01:17:05.504Z,100099.77
2018-07-25T01:19:36.211Z,100098.41
2018-07-25T01:22:06.941Z,100102.44
2018-07-25T01:24:37.640Z,100107.95
2018-07-25T01:27:08.608Z,100115.84
2018-07-25T01:29:39.287Z,100112.31
2018-07-25T01:32:09.987Z,100111.45
2018-07-25T01:34:40.668Z,100110.41
2018-07-25T01:37:11.591Z,100113.41
2018-07-25T01:39:42.287Z,100115.72
2018-07-25T01:42:12.999Z,100110.65
2018-07-25T01:44:43.685Z,100113.13
2018-07-25T01:47:14.380Z,100116.30
2018-07-25T01:49:45.093Z,100116.41
2018-07-25T01:52:15.809Z,100117.54
2018-07-25T01:54:46.444Z,100116.66
2018-07-25T01:57:17.136Z,100111.06
2018-07-25T01:59:47.869Z,100115.08
2018-07-25T02:02:18.514Z,100116.56
2018-07-25T02:04:49.142Z,100116.01
2018-07-25T02:07:19.897Z,100114.30
2018-07-25T02:09:50.513Z,100121.80
2018-07-25T02:12:21.202Z,100121.04
2018-07-25T02:14:51.960Z,100120.16
2018-07-25T02:17:22.662Z,100125.17
2018-07-25T02:19:53.314Z,100122.45
2018-07-25T02:22:24.039Z,100131.99
2018-07-25T02:24:54.728Z,100129.23
2018-07-25T02:27:25.447Z,100134.94
2018-07-25T02:29:56.126Z,100133.00
2018-07-25T02:32:26.808Z,100135.25
2018-07-25T02:34:57.484Z,100136.22
2018-07-25T02:37:28.168Z,100131.99
2018-07-25T02:39:58.919Z,100130.94
2018-07-25T02:42:29.656Z,100136.27
2018-07-25T02:45:00.337Z,100138.27
2018-07-25T02:47:31.068Z,100136.88
2018-07-25T02:50:01.743Z,100143.03
2018-07-25T02:52:32.549Z,100137.98
2018-07-25T02:55:03.249Z,100145.63
2018-07-25T02:57:33.887Z,100151.74
2018-07-25T03:00:05.691Z,100152.06
2018-07-25T03:02:36.444Z,100145.79
2018-07-25T03:05:07.588Z,100153.80
2018-07-25T03:07:38.226Z,100154.73
2018-07-25T03:10:09.002Z,100156.35
2018-07-25T03:12:39.767Z,100152.92
2018-07-25T03:15:10.479Z,100159.09
2018-07-25T03:17:41.132Z,100155.51
2018-07-25T03:20:11.839Z,100154.45
2018-07-25T03:22:42.672Z,100148.53
2018-07-25T03:25:13.351Z,100155.69
2018-07-25T03:27:44.038Z,100155.63
2018-07-25T03:30:14.794Z,100158.22
2018-07-25T03:32:45.498Z,100155.64
2018-07-25T03:35:16.197Z,100158.60
2018-07-25T03:37:46.899Z,100156.23
2018-07-25T03:40:17.604Z,100165.41
2018-07-25T03:42:48.296Z,100161.17
2018-07-25T03:45:19.037Z,100169.71
2018-07-25T03:47:49.766Z,100162.30
2018-07-25T03:50:20.482Z,100167.82
2018-07-25T03:52:51.172Z,100167.09
2018-07-25T03:55:21.953Z,100167.70
2018-07-25T03:57:52.627Z,100170.53
2018-07-25T04:00:23.374Z,100171.88
2018-07-25T04:02:54.039Z,100177.72
2018-07-25T04:05:24.736Z,100185.65
2018-07-25T04:07:55.457Z,100183.80
2018-07-25T04:10:26.210Z,100181.11
2018-07-25T04:12:56.965Z,100182.75
2018-07-25T04:15:27.611Z,100174.86
2018-07-25T04:17:58.325Z,100186.63
2018-07-25T04:20:28.995Z,100181.96
2018-07-25T04:22:59.675Z,100179.98
2018-07-25T04:25:30.571Z,100183.77
2018-07-25T04:28:01.243Z,100179.95
2018-07-25T04:30:32.026Z,100184.19
2018-07-25T04:33:03.073Z,100183.88
2018-07-25T04:35:39.467Z,100185.92
2018-07-25T04:38:10.183Z,100192.08
2018-07-25T04:40:40.949Z,100186.67
2018-07-25T04:43:11.727Z,100188.85
2018-07-25T04:45:42.462Z,100190.35
2018-07-25T04:48:13.150Z,100193.22
2018-07-25T04:50:43.905Z,100195.52
2018-07-25T04:53:14.617Z,100196.17
2018-07-25T04:55:45.340Z,100198.09
2018-07-25T04:58:16.065Z,100199.20
2018-07-25T05:00:46.748Z,100199.66
2018-07-25T05:03:17.413Z,100200.06
2018-07-25T05:08:17.219Z,100197.95
2018-07-25T05:10:47.818Z,100197.61
2018-07-25T05:13:18.500Z,100203.20
2018-07-25T05:15:49.329Z,100205.44
2018-07-25T05:18:20.031Z,100215.57
2018-07-25T05:20:50.790Z,100214.15
2018-07-25T05:23:21.482Z,100213.24
2018-07-25T05:25:52.147Z,100220.10
2018-07-25T05:28:22.855Z,100223.55
2018-07-25T05:30:53.590Z,100225.83
2018-07-25T05:33:24.318Z,100227.20
2018-07-25T05:35:54.995Z,100232.78
2018-07-25T05:38:25.693Z,100227.40
2018-07-25T05:43:57.885Z,100238.39
2018-07-25T05:46:28.511Z,100239.28
2018-07-25T05:48:59.241Z,100244.56
2018-07-25T05:51:29.917Z,100242.95
2018-07-25T05:54:00.650Z,100245.99
2018-07-25T05:56:31.455Z,100251.98
2018-07-25T05:59:02.187Z,100253.61
2018-07-25T06:01:32.830Z,100252.16
2018-07-25T06:04:03.652Z,100251.99
2018-07-25T06:06:34.410Z,100245.15
2018-07-25T06:09:08.183Z,100249.41
2018-07-25T06:11:39.366Z,100257.83
2018-07-25T06:14:10.095Z,100260.41
2018-07-25T06:16:40.808Z,100262.27
2018-07-25T06:19:11.513Z,100269.20
2018-07-25T06:21:42.215Z,100265.86
2018-07-25T06:24:13.004Z,100267.61
2018-07-25T06:26:43.685Z,100271.91
2018-07-25T06:29:14.370Z,100269.94
2018-07-25T06:31:45.053Z,100268.11
2018-07-25T06:34:15.735Z,100278.75
2018-07-25T06:36:46.360Z,100279.31
2018-07-25T06:39:17.034Z,100283.38
2018-07-25T06:41:47.704Z,100283.45
2018-07-25T06:44:18.367Z,100287.20
2018-07-25T06:46:49.030Z,100282.03
2018-07-25T06:49:19.339Z,100291.17
2018-07-25T06:51:49.892Z,100289.51
2018-07-25T06:54:20.539Z,100287.70
2018-07-25T06:56:51.262Z,100289.05
2018-07-25T06:59:21.940Z,100291.27
2018-07-25T07:01:52.556Z,100291.64
2018-07-25T07:04:23.243Z,100292.64
2018-07-25T07:06:53.886Z,100298.37
2018-07-25T07:09:24.554Z,100299.39
2018-07-25T07:11:55.173Z,100300.22
2018-07-25T07:14:25.858Z,100308.84
2018-07-25T07:16:56.475Z,100309.50
2018-07-25T07:19:27.157Z,100312.03
2018-07-25T07:21:57.962Z,100306.92
2018-07-25T07:24:28.594Z,100307.41
2018-07-25T07:26:59.224Z,100305.18
2018-07-25T07:29:29.901Z,100305.27
2018-07-25T07:32:00.568Z,100303.06
2018-07-25T07:34:31.239Z,100300.56
2018-07-25T07:37:02.279Z,100304.87
2018-07-25T07:39:32.913Z,100300.22
2018-07-25T07:42:03.635Z,100299.80
2018-07-25T07:44:34.286Z,100301.30
2018-07-25T07:47:05.039Z,100305.20
2018-07-25T07:49:35.686Z,100307.48
2018-07-25T07:52:06.488Z,100306.66
2018-07-25T07:54:37.198Z,100307.00
2018-07-25T07:57:07.879Z,100312.54
2018-07-25T07:59:38.606Z,100311.45
2018-07-25T08:02:09.432Z,100301.42
2018-07-25T08:04:40.056Z,100306.03
2018-07-25T08:07:10.797Z,100303.81
2018-07-25T08:09:41.458Z,100302.59
2018-07-25T08:12:12.147Z,100302.23
2018-07-25T08:14:42.827Z,100303.19
2018-07-25T08:17:13.507Z,100312.02
2018-07-25T08:19:44.239Z,100304.38
2018-07-25T08:22:14.855Z,100303.14
2018-07-25T08:24:45.484Z,100301.66
2018-07-25T08:27:16.188Z,100306.80
2018-07-25T08:30:17.413Z,100311.36
2018-07-25T08:32:48.066Z,100306.10
2018-07-25T08:35:18.709Z,100304.64
2018-07-25T08:37:49.356Z,100304.50
2018-07-25T08:40:20.080Z,100299.11
2018-07-25T08:42:50.785Z,100297.67
2018-07-25T08:45:21.403Z,100298.17
2018-07-25T08:47:52.068Z,100296.22
2018-07-25T08:50:22.736Z,100302.33
2018-07-25T08:52:53.493Z,100296.33
2018-07-25T08:55:24.072Z,100294.17
2018-07-25T08:57:54.783Z,100296.16
2018-07-25T09:00:25.503Z,100292.33
2018-07-25T09:02:56.153Z,100291.95
2018-07-25T09:05:26.770Z,100296.53
2018-07-25T09:07:57.430Z,100299.48
2018-07-25T09:10:28.091Z,100300.03
2018-07-25T09:12:58.753Z,100296.80
2018-07-25T09:15:29.360Z,100293.73
2018-07-25T09:18:00.043Z,100294.64
2018-07-25T09:20:30.732Z,100296.77
2018-07-25T09:23:01.420Z,100291.28
2018-07-25T09:25:32.532Z,100288.39
2018-07-25T09:28:03.233Z,100292.61
2018-07-25T09:30:33.945Z,100286.62
2018-07-25T09:33:04.652Z,100285.67
2018-07-25T09:35:35.333Z,100288.28
2018-07-25T09:38:06.059Z,100283.04
2018-07-25T09:40:36.714Z,100291.03
2018-07-25T09:43:07.458Z,100287.41
2018-07-25T09:45:38.127Z,100281.39
2018-07-25T09:48:08.829Z,100285.44
2018-07-25T09:50:39.545Z,100286.73
2018-07-25T09:53:10.316Z,100284.60
2018-07-25T09:55:40.930Z,100285.05
2018-07-25T09:58:11.605Z,100287.52
2018-07-25T10:00:50.282Z,100288.22
2018-07-25T10:03:21.091Z,100286.47
2018-07-25T10:05:51.786Z,100282.77
2018-07-25T10:08:22.456Z,100286.35
2018-07-25T10:10:53.180Z,100281.27
2018-07-25T10:13:23.863Z,100285.34
2018-07-25T10:15:54.584Z,100274.67
2018-07-25T10:18:25.243Z,100278.73
2018-07-25T10:20:56.009Z,100276.28
2018-07-25T10:23:26.651Z,100277.91
2018-07-25T10:25:57.295Z,100272.96
2018-07-25T10:28:28.188Z,100271.69
2018-07-25T10:30:58.887Z,100280.17
2018-07-25T10:33:29.544Z,100273.49
2018-07-25T10:36:00.187Z,100267.42
2018-07-25T10:38:30.869Z,100271.60
2018-07-25T10:41:01.532Z,100261.73
2018-07-25T10:43:32.212Z,100261.00
2018-07-25T10:46:02.853Z,100267.41
2018-07-25T10:48:33.546Z,100261.05
2018-07-25T10:51:04.210Z,100262.28
2018-07-25T10:53:34.946Z,100258.42
2018-07-25T10:56:05.607Z,100251.77
2018-07-25T10:58:36.284Z,100254.83
2018-07-25T11:01:13.653Z,100253.45
2018-07-25T11:07:18.014Z,100252.89
2018-07-25T11:09:48.795Z,100256.31
2018-07-25T11:12:19.399Z,100249.00
2018-07-25T11:14:50.085Z,100250.73
2018-07-25T11:17:20.705Z,100251.31
2018-07-25T11:19:51.499Z,100246.87
2018-07-25T11:22:22.134Z,100244.96
2018-07-25T11:24:52.863Z,100238.84
2018-07-25T11:27:23.501Z,100241.98
2018-07-25T11:29:54.166Z,100236.30
2018-07-25T11:32:24.815Z,100239.40
2018-07-25T11:34:55.529Z,100232.86
2018-07-25T11:37:26.205Z,100222.17
2018-07-25T11:39:56.876Z,100224.31
2018-07-25T11:42:27.582Z,100220.77
2018-07-25T11:44:58.233Z,100226.64
2018-07-25T11:47:32.681Z,100227.41
2018-07-25T11:50:03.553Z,100224.09
2018-07-25T11:52:33.848Z,100215.78
2018-07-25T11:55:04.623Z,100218.41
2018-07-25T11:57:35.283Z,100220.98
2018-07-25T12:00:06.531Z,100223.03
2018-07-25T12:02:37.207Z,100212.63
2018-07-25T12:05:08.026Z,100213.42
2018-07-25T12:07:38.655Z,100215.38
2018-07-25T12:10:09.480Z,100212.25
2018-07-25T12:12:40.163Z,100208.09
2018-07-25T12:15:11.119Z,100210.94
2018-07-25T12:17:41.764Z,100205.28
2018-07-25T12:20:12.443Z,100208.77
2018-07-25T12:22:43.115Z,100204.06
2018-07-25T12:25:13.864Z,100198.48
2018-07-25T12:27:44.546Z,100196.33
2018-07-25T12:30:15.228Z,100203.78
2018-07-25T12:32:46.229Z,100209.83
2018-07-25T12:35:16.915Z,100200.91
2018-07-25T12:37:47.634Z,100200.41
2018-07-25T12:40:18.310Z,100196.81
2018-07-25T12:42:49.063Z,100194.92
2018-07-25T12:45:19.730Z,100192.20
2018-07-25T12:47:50.403Z,100185.52
2018-07-25T12:50:21.100Z,100187.21
2018-07-25T12:52:51.851Z,100182.22
2018-07-25T12:55:22.547Z,100183.47
2018-07-25T12:57:53.282Z,100188.55
2018-07-25T13:00:24.008Z,100185.12
2018-07-25T13:02:54.732Z,100178.20
2018-07-25T13:05:25.384Z,100179.33
2018-07-25T13:07:56.084Z,100177.75
2018-07-25T13:10:26.820Z,100170.20
2018-07-25T13:12:57.510Z,100174.70
2018-07-25T13:15:28.211Z,100180.58
2018-07-25T13:17:58.858Z,100179.47
2018-07-25T13:20:29.558Z,100173.33
2018-07-25T13:23:00.309Z,100171.00
2018-07-25T13:25:30.987Z,100172.89
2018-07-25T13:28:01.668Z,100180.14
2018-07-25T13:30:32.673Z,100170.44
2018-07-25T13:33:03.359Z,100175.66
2018-07-25T13:35:34.047Z,100171.59
2018-07-25T13:38:04.875Z,100180.50
2018-07-25T13:40:35.710Z,100178.52
2018-07-25T13:43:06.682Z,100175.71
2018-07-25T13:45:37.428Z,100172.90
2018-07-25T13:48:08.114Z,100168.50
2018-07-25T13:50:38.823Z,100165.36
2018-07-25T13:53:09.542Z,100168.67
2018-07-25T13:55:40.287Z,100159.80
2018-07-25T13:58:10.958Z,100166.88
2018-07-25T14:00:41.615Z,100166.56
2018-07-25T14:03:12.324Z,100169.67
2018-07-25T14:05:42.987Z,100173.55
2018-07-25T14:08:13.674Z,100175.16
2018-07-25T14:10:44.378Z,100178.19
2018-07-25T14:13:15.063Z,100173.22
2018-07-25T14:15:45.734Z,100177.08
2018-07-25T14:18:16.471Z,100178.52
2018-07-25T14:20:47.958Z,100186.88
2018-07-25T14:23:18.639Z,100185.38
2018-07-25T14:25:49.456Z,100185.52
2018-07-25T14:28:20.173Z,100191.98
2018-07-25T14:30:50.914Z,100185.87
2018-07-25T14:33:21.267Z,100189.89
2018-07-25T14:35:51.855Z,100182.41
2018-07-25T14:38:22.548Z,100196.00
2018-07-25T14:50:19.011Z,100193.66
2018-07-25T14:52:49.713Z,100190.06
2018-07-25T14:55:20.427Z,100194.45
2018-07-25T14:57:51.152Z,100183.46
2018-07-25T15:00:21.924Z,100188.30
2018-07-25T15:02:52.678Z,100190.10
2018-07-25T15:05:23.328Z,100185.36
2018-07-25T15:07:54.143Z,100186.52
2018-07-25T15:10:24.910Z,100185.06
2018-07-25T15:12:58.069Z,100184.94
2018-07-25T15:15:29.042Z,100192.20
2018-07-25T15:17:59.717Z,100191.02
2018-07-25T15:20:31.329Z,100181.36
2018-07-25T15:23:02.035Z,100186.31
2018-07-25T15:25:32.744Z,100188.19
2018-07-25T15:28:03.450Z,100184.28
2018-07-25T15:30:34.137Z,100182.52
2018-07-25T15:33:04.923Z,100180.72
2018-07-25T15:35:35.651Z,100174.75
2018-07-25T15:38:06.545Z,100169.08
2018-07-25T15:40:37.290Z,100168.66
2018-07-25T15:43:08.251Z,100163.63
2018-07-25T15:45:39.062Z,100160.89
2018-07-25T15:48:09.812Z,100163.27
2018-07-25T15:50:40.503Z,100166.16
2018-07-25T15:53:11.207Z,100164.69
2018-07-25T15:55:41.912Z,100164.27
2018-07-25T15:58:12.973Z,100162.80
2018-07-25T16:00:43.794Z,100163.42
2018-07-25T16:03:14.550Z,100158.92
2018-07-25T16:05:45.262Z,100162.44
2018-07-25T16:08:16.043Z,100164.41
2018-07-25T16:10:46.783Z,100168.69
2018-07-25T16:13:17.574Z,100158.72
2018-07-25T16:15:48.229Z,100169.66
2018-07-25T16:18:18.999Z,100178.92
2018-07-25T16:21:20.436Z,100175.53
2018-07-25T16:23:51.130Z,100177.13
2018-07-25T16:26:21.855Z,100163.58
2018-07-25T16:28:52.525Z,100157.05
2018-07-25T16:31:23.206Z,100158.23
2018-07-25T16:33:53.922Z,100157.53
2018-07-25T16:36:24.639Z,100151.66
2018-07-25T16:38:55.334Z,100155.91
2018-07-25T16:41:26.059Z,100156.45
2018-07-25T16:43:56.742Z,100151.92
2018-07-25T16:46:27.446Z,100156.54
2018-07-25T16:48:58.158Z,100155.18
2018-07-25T16:51:28.807Z,100169.16
2018-07-25T16:53:59.523Z,100171.36
2018-07-25T16:56:30.252Z,100180.23
2018-07-25T16:59:00.926Z,100180.48
2018-07-25T17:01:31.601Z,100177.41
2018-07-25T17:04:02.263Z,100182.45
2018-07-25T17:06:33.014Z,100178.78
2018-07-25T17:09:04.084Z,100183.91
2018-07-25T17:11:34.811Z,100189.92
2018-07-25T17:14:05.603Z,100184.98
2018-07-25T17:16:36.292Z,100190.14
2018-07-25T17:19:06.974Z,100197.44
2018-07-25T17:21:37.709Z,100194.45
2018-07-25T17:24:08.386Z,100192.11
2018-07-25T17:26:39.083Z,100193.80
2018-07-25T17:29:16.613Z,100199.09
2018-07-25T17:31:47.323Z,100209.38
2018-07-25T17:34:18.046Z,100198.75
2018-07-25T17:36:48.708Z,100197.45
2018-07-25T17:39:19.393Z,100194.94
2018-07-25T17:41:50.142Z,100185.95
2018-07-25T17:44:20.897Z,100190.19
2018-07-25T17:46:51.635Z,100186.97
2018-07-25T17:49:22.259Z,100189.52
2018-07-25T17:51:52.979Z,100187.95
2018-07-25T17:54:23.682Z,100194.09
2018-07-25T17:56:54.384Z,100197.31
2018-07-25T17:59:25.070Z,100205.94
2018-07-25T18:01:55.889Z,100211.39
2018-07-25T18:04:26.614Z,100204.98
2018-07-25T18:06:57.539Z,100209.81
2018-07-25T18:09:28.260Z,100217.16
2018-07-25T18:11:58.988Z,100224.91
2018-07-25T18:14:29.652Z,100225.67
2018-07-25T18:17:00.343Z,100229.66
2018-07-25T18:19:31.094Z,100237.51
2018-07-25T18:22:01.911Z,100244.84
2018-07-25T18:24:32.609Z,100239.02
2018-07-25T18:27:03.341Z,100240.23
2018-07-25T18:29:34.013Z,100248.59
2018-07-25T18:32:04.763Z,100253.70
2018-07-25T18:34:35.471Z,100255.80
2018-07-25T18:37:06.161Z,100261.65
2018-07-25T18:39:36.852Z,100267.13
2018-07-25T18:42:07.695Z,100278.72
2018-07-25T18:44:38.403Z,100287.09
2018-07-25T18:47:09.124Z,100286.94
2018-07-25T18:49:39.807Z,100291.94
2018-07-25T18:52:10.489Z,100288.92
2018-07-25T18:54:41.186Z,100281.88
2018-07-25T18:57:11.888Z,100281.56
2018-07-25T18:59:42.554Z,100279.75
2018-07-25T19:02:13.370Z,100279.44
2018-07-25T19:04:44.015Z,100283.19
2018-07-25T19:07:14.721Z,100289.36
2018-07-25T19:09:45.545Z,100298.52
2018-07-25T19:12:16.200Z,100295.15
2018-07-25T19:14:52.095Z,100294.20
2018-07-25T19:17:22.787Z,100299.85
2018-07-25T19:19:53.462Z,100298.83
2018-07-25T19:22:24.153Z,100299.52
2018-07-25T19:24:54.873Z,100301.41
2018-07-25T19:27:25.546Z,100304.81
2018-07-25T19:29:56.252Z,100310.06
2018-07-25T19:32:26.919Z,100312.45
2018-07-25T19:34:57.734Z,100307.74
2018-07-25T19:37:28.367Z,100312.86
2018-07-25T19:39:59.094Z,100312.02
2018-07-25T19:42:29.731Z,100316.75
2018-07-25T19:45:00.452Z,100314.58
2018-07-25T19:47:31.080Z,100311.87
2018-07-25T19:50:01.784Z,100310.00
2018-07-25T19:52:32.448Z,100312.23
2018-07-25T19:55:03.163Z,100317.11
2018-07-25T19:57:33.821Z,100309.34
2018-07-25T20:00:05.080Z,100307.16
2018-07-25T20:02:35.451Z,100313.41
2018-07-25T20:05:06.430Z,100313.41
2018-07-25T20:07:37.173Z,100309.01
2018-07-25T20:10:07.923Z,100306.98
2018-07-25T20:12:38.585Z,100303.79
2018-07-25T20:15:14.553Z,100309.70
2018-07-25T20:17:45.258Z,100307.50
2018-07-25T20:20:16.014Z,100305.65
2018-07-25T20:22:46.714Z,100309.00
2018-07-25T20:25:17.404Z,100303.92
2018-07-25T20:27:48.090Z,100302.39
2018-07-25T20:30:18.786Z,100297.32
2018-07-25T20:32:49.485Z,100301.72
2018-07-25T20:35:20.125Z,100305.25
2018-07-25T20:37:50.805Z,100305.42
2018-07-25T20:40:21.576Z,100305.42
2018-07-25T20:42:52.744Z,100302.72
2018-07-25T20:45:23.553Z,100308.62
2018-07-25T20:47:54.263Z,100308.94
2018-07-25T20:50:25.035Z,100304.70
2018-07-25T20:52:55.680Z,100313.30
2018-07-25T20:55:26.386Z,100309.08
2018-07-25T20:57:56.785Z,100312.63
2018-07-25T21:00:32.476Z,100312.62
2018-07-25T21:03:05.270Z,100306.69
2018-07-25T21:05:36.391Z,100309.06
2018-07-25T21:08:07.128Z,100313.78
2018-07-25T21:10:37.891Z,100311.58
2018-07-25T21:13:08.542Z,100301.95
2018-07-25T21:15:39.191Z,100310.72
2018-07-25T21:18:09.861Z,100317.64
2018-07-25T21:20:40.512Z,100311.89
2018-07-25T21:23:11.180Z,100316.25
2018-07-25T21:25:41.848Z,100315.04
2018-07-25T21:28:12.676Z,100316.43
2018-07-25T21:30:43.375Z,100317.23
2018-07-25T21:33:14.004Z,100317.38
2018-07-25T21:35:44.655Z,100323.97
2018-07-25T21:38:15.984Z,100325.45
2018-07-25T21:40:46.683Z,100326.98
2018-07-25T21:45:46.001Z,100328.82
2018-07-25T21:48:16.657Z,100331.15
2018-07-25T21:50:47.293Z,100329.30
2018-07-25T21:53:17.919Z,100330.27
2018-07-25T21:55:48.556Z,100326.38
2018-07-25T21:58:19.210Z,100330.56
2018-07-25T22:00:57.166Z,100327.36
2018-07-25T22:03:27.968Z,100322.14
2018-07-25T22:05:58.643Z,100324.82
2018-07-25T22:08:29.307Z,100324.27
2018-07-25T22:11:00.012Z,100324.58
2018-07-25T22:13:30.656Z,100318.51
2018-07-25T22:16:01.632Z,100320.86
2018-07-25T22:18:32.299Z,100322.04
2018-07-25T22:21:02.984Z,100321.52
2018-07-25T22:23:33.626Z,100315.27
2018-07-25T22:26:04.355Z,100312.56
2018-07-25T22:28:34.982Z,100311.55
2018-07-25T22:31:05.733Z,100320.30
2018-07-25T22:33:36.380Z,100315.57
2018-07-25T22:36:07.898Z,100324.51
2018-07-25T22:38:38.533Z,100317.03
2018-07-25T22:41:09.232Z,100319.67
2018-07-25T22:43:39.866Z,100318.50
2018-07-25T22:46:10.597Z,100314.92
2018-07-25T22:48:41.259Z,100319.27
2018-07-25T22:51:11.569Z,100309.62
2018-07-25T22:53:42.079Z,100317.69
2018-07-25T22:56:12.709Z,100317.00
2018-07-25T22:58:43.325Z,100319.48
2018-07-25T23:01:13.959Z,100312.36
2018-07-25T23:03:44.603Z,100316.38
2018-07-25T23:06:15.251Z,100313.84
2018-07-25T23:08:45.957Z,100311.81
2018-07-25T23:11:16.595Z,100310.44
2018-07-25T23:13:47.931Z,100310.84
2018-07-25T23:16:18.602Z,100308.61
2018-07-25T23:18:49.328Z,100309.20
2018-07-25T23:21:19.975Z,100312.88
2018-07-25T23:23:50.664Z,100314.13
2018-07-25T23:26:21.295Z,100312.30
2018-07-25T23:28:52.007Z,100309.01
2018-07-25T23:31:22.663Z,100306.48
2018-07-25T23:33:53.331Z,100303.95
2018-07-25T23:36:23.964Z,100301.92
2018-07-25T23:38:54.698Z,100294.30
2018-07-25T23:41:25.358Z,100296.30
2018-07-25T23:43:56.023Z,100299.13
2018-07-25T23:46:26.707Z,100302.96
2018-07-25T23:48:57.393Z,100305.77
2018-07-25T23:51:28.059Z,100291.77
2018-07-25T23:53:58.765Z,100301.34
2018-07-25T23:56:29.429Z,100303.34
2018-07-25T23:59:00.120Z,100299.95
